Time;durP1;ratioP1;P1;durP2;ratioP2;P2;SDS_P1;SDS_P2;PMS_P1;PMS_P2;Temp;Humidity;BMP_temperature;BMP_pressure;BME280_temperature;BME280_humidity;BME280_pressure;Samples;Min_cycle;Max_cycle;Signal;HPM_P1;HPM_P2
2022/01/17 00:00:34;;;;;;;;;103.67;74.67;;;;;-2.51;100.00;100176.28;6315728;20;3682547;-40
2022/01/17 00:03:04;;;;;;;;;103.00;72.00;;;;;-2.56;100.00;100171.00;6283343;20;3548253;-41
2022/01/17 00:05:33;;;;;;;;;103.00;73.00;;;;;-2.69;100.00;100166.63;6313736;20;3673933;-42
2022/01/17 00:08:03;;;;;;;;;93.00;69.00;;;;;-2.55;100.00;100164.91;6317625;20;2883631;-41
2022/01/17 00:10:33;;;;;;;;;102.67;70.67;;;;;-2.65;100.00;100173.66;6315738;20;3658583;-42
2022/01/17 00:13:01;;;;;;;;;68.00;39.67;;;;;-2.63;100.00;100158.78;6316568;20;3566877;-41
2022/01/17 00:15:43;;;;;;;;;107.00;78.33;;;;;-2.77;100.00;100158.75;6316568;20;3676384;-41
2022/01/17 00:20:46;;;;;;;;;98.00;70.00;;;;;-2.57;100.00;100140.34;6315134;20;2891081;-43
2022/01/17 00:23:17;;;;;;;;;95.67;74.00;;;;;-2.43;100.00;100133.31;6316639;20;3651683;-41
2022/01/17 00:25:47;;;;;;;;;100.33;72.00;;;;;-2.23;100.00;100137.69;6315444;20;3662762;-40
2022/01/17 00:28:16;;;;;;;;;101.67;74.67;;;;;-2.09;100.00;100140.25;6311784;20;3690878;-40
2022/01/17 00:30:46;;;;;;;;;101.67;73.00;;;;;-2.09;100.00;100143.75;6281156;20;3666000;-41
2022/01/17 00:33:16;;;;;;;;;102.67;69.33;;;;;-2.18;100.00;100138.53;6316432;20;3689406;-41
2022/01/17 00:35:45;;;;;;;;;91.00;72.00;;;;;-2.06;100.00;100154.28;6282049;20;2882574;-40
2022/01/17 00:38:15;;;;;;;;;96.00;70.33;;;;;-1.90;100.00;100148.97;6283699;20;2899323;-42
2022/01/17 00:40:44;;;;;;;;;94.00;67.33;;;;;-1.81;100.00;100154.22;6316072;20;3653489;-42
2022/01/17 00:43:15;;;;;;;;;95.00;71.33;;;;;-2.00;100.00;100138.50;6314974;20;3645102;-40
2022/01/17 00:45:45;;;;;;;;;94.00;67.00;;;;;-1.83;100.00;100146.31;6316484;20;3642000;-41
2022/01/17 00:48:14;;;;;;;;;90.67;68.33;;;;;-1.78;100.00;100154.19;6314639;20;2890054;-41
2022/01/17 00:50:45;;;;;;;;;91.33;65.00;;;;;-1.75;100.00;100162.06;6315372;20;3663892;-43
2022/01/17 00:53:14;;;;;;;;;93.00;67.67;;;;;-1.81;100.00;100144.56;6314400;20;3639823;-40
2022/01/17 00:55:44;;;;;;;;;99.00;70.00;;;;;-1.65;100.00;100142.72;6313472;20;3647151;-41
2022/01/17 00:58:14;;;;;;;;;94.67;68.00;;;;;-1.58;100.00;100140.94;6315562;20;3656480;-40
2022/01/17 01:00:45;;;;;;;;;94.67;68.00;;;;;-1.60;100.00;100140.94;6313310;20;3650237;-41
2022/01/17 01:03:15;;;;;;;;;88.67;64.00;;;;;-1.56;100.00;100140.03;6313418;20;3651276;-40
2022/01/17 01:05:44;;;;;;;;;86.33;68.00;;;;;-1.50;100.00;100144.44;6316322;20;2872246;-43
2022/01/17 01:08:14;;;;;;;;;95.67;65.33;;;;;-1.28;100.00;100139.91;6316386;20;3665940;-41
2022/01/17 01:10:44;;;;;;;;;85.67;62.00;;;;;-1.21;100.00;100135.44;6314985;20;3645027;-41
2022/01/17 01:13:14;;;;;;;;;94.00;66.00;;;;;-1.09;100.00;100139.78;6313985;20;3647083;-40
2022/01/17 01:18:36;;;;;;;;;82.00;63.67;;;;;-0.83;100.00;100132.53;6315121;20;3635827;-41
2022/01/17 01:21:43;;;;;;;;;88.33;65.67;;;;;-0.81;100.00;100129.91;6315489;20;3649235;-41
2022/01/17 01:29:45;;;;;;;;;79.50;64.00;;;;;-0.54;100.00;100128.78;6315199;20;2875367;-41
2022/01/17 01:32:20;;;;;;;;;85.00;62.00;;;;;-0.56;100.00;100120.00;6283469;20;2902468;-41
2022/01/17 01:34:54;;;;;;;;;75.00;55.00;;;;;-0.35;100.00;100103.97;6311168;20;2882667;-43
2022/01/17 01:37:23;;;;;;;;;72.00;53.00;;;;;0.06;100.00;100094.72;6315982;20;2871102;-42
2022/01/17 01:39:53;;;;;;;;;80.67;56.33;;;;;-0.25;100.00;100084.50;6283945;20;2885658;-43
2022/01/17 01:42:23;;;;;;;;;76.00;55.00;;;;;-0.09;100.00;100081.69;6312850;20;2500352;-41
2022/01/17 01:44:53;;;;;;;;;65.50;50.00;;;;;-0.05;100.00;100080.78;6277590;20;2499216;-40
2022/01/17 01:47:27;;;;;;;;;55.50;47.50;;;;;-0.13;100.00;100078.25;6283760;20;2868981;-43
2022/01/17 01:49:56;;;;;;;;;72.00;52.50;;;;;-0.05;100.00;100091.34;6284716;20;2868363;-41
2022/01/17 01:52:25;;;;;;;;;66.00;51.00;;;;;-0.10;100.00;100090.53;6282977;20;2859621;-40
2022/01/17 01:54:54;;;;;;;;;60.50;51.00;;;;;-0.07;100.00;100086.06;6282261;20;2864848;-41
2022/01/17 01:57:22;;;;;;;;;67.00;48.00;;;;;0.01;100.00;100079.84;6282021;20;2855466;-43
2022/01/17 01:59:52;;;;;;;;;67.00;48.00;;;;;-0.05;100.00;100080.78;6279758;20;2880958;-41
2022/01/17 02:02:21;;;;;;;;;68.33;51.00;;;;;-0.08;100.00;100078.16;6285157;20;2861839;-40
2022/01/17 02:04:50;;;;;;;;;64.50;45.50;;;;;-0.16;100.00;100064.19;6312059;20;2877371;-41
2022/01/17 02:07:22;;;;;;;;;62.00;40.67;;;;;0.04;100.00;100064.81;6282954;20;3650393;-41
2022/01/17 02:09:51;;;;;;;;;59.33;45.67;;;;;0.39;100.00;100072.25;6315737;20;2889820;-40
2022/01/17 02:12:22;;;;;;;;;62.00;44.00;;;;;0.86;100.00;100053.97;6311882;20;2888902;-44
2022/01/17 02:14:54;;;;;;;;;59.67;40.00;;;;;1.36;100.00;100054.84;6310647;20;3632508;-41
2022/01/17 02:17:24;;;;;;;;;46.00;40.50;;;;;1.27;100.00;100063.84;6311221;20;2500319;-43
2022/01/17 02:20:05;;;;;;;;;55.50;44.50;;;;;1.43;100.00;100055.63;6280890;20;2851284;-40
2022/01/17 02:22:35;;;;;;;;;49.33;37.00;;;;;1.47;100.00;100047.59;6280569;20;2874319;-42
2022/01/17 02:25:04;;;;;;;;;52.00;43.50;;;;;1.44;100.00;100038.84;6305209;20;2500286;-44
2022/01/17 02:27:32;;;;;;;;;33.50;28.00;;;;;1.56;100.00;100054.50;6278726;20;2500254;-42
2022/01/17 02:30:01;;;;;;;;;39.50;36.00;;;;;1.73;100.00;100051.53;6282165;20;2854414;-41
2022/01/17 02:32:29;;;;;;;;;45.00;34.50;;;;;1.86;98.50;100047.72;6279753;20;2873305;-42
2022/01/17 02:35:18;;;;;;;;;42.50;36.00;;;;;1.75;98.87;100036.50;6279444;20;2869030;-42
2022/01/17 02:37:47;;;;;;;;;42.00;34.50;;;;;1.74;98.69;100054.16;6282245;20;2857535;-44
2022/01/17 02:40:19;;;;;;;;;45.50;38.50;;;;;1.78;98.79;100054.09;6281791;20;2864927;-42
2022/01/17 02:43:03;;;;;;;;;42.00;33.50;;;;;1.87;98.20;100049.50;6281988;20;2875388;-43
2022/01/17 02:48:09;;;;;;;;;40.00;37.00;;;;;2.05;97.00;100057.94;6281225;20;2852471;-42
2022/01/17 02:50:39;;;;;;;;;42.00;38.00;;;;;2.11;96.22;100055.19;6282192;20;2853440;-45
2022/01/17 02:53:09;;;;;;;;;36.00;31.50;;;;;2.07;96.37;100054.34;6280652;20;2849215;-43
2022/01/17 02:55:50;;;;;;;;;36.50;25.00;;;;;2.15;96.67;100043.59;6278725;20;2866951;-42
2022/01/17 02:58:25;;;;;;;;;42.33;36.67;;;;;2.20;95.99;100045.25;6281486;20;2864951;-42
2022/01/17 03:00:57;;;;;;;;;29.67;22.33;;;;;2.54;96.17;100040.97;6313434;20;3563938;-45
2022/01/17 03:03:29;;;;;;;;;45.50;32.00;;;;;2.53;93.89;100034.81;6312948;20;2865864;-42
2022/01/17 03:05:59;;;;;;;;;23.00;18.50;;;;;2.59;94.21;100028.50;6277456;20;2500302;-43
2022/01/17 03:08:32;;;;;;;;;28.50;28.50;;;;;2.53;93.39;100031.28;6279187;20;2846083;-42
2022/01/17 03:11:07;;;;;;;;;41.00;34.00;;;;;2.67;93.07;100034.47;6277915;20;2857549;-43
2022/01/17 03:13:37;;;;;;;;;39.00;31.50;;;;;2.88;93.31;100045.50;6271929;20;2500256;-42
2022/01/17 03:16:15;;;;;;;;;33.50;27.50;;;;;2.63;92.23;100056.66;6277316;20;2860699;-41
2022/01/17 03:18:52;;;;;;;;;37.50;28.00;;;;;2.82;91.01;100057.97;6272791;20;2500246;-44
2022/01/17 03:21:21;;;;;;;;;36.00;29.00;;;;;2.78;90.87;100055.44;6280714;20;2736785;-44
2022/01/17 03:23:51;;;;;;;;;33.50;27.00;;;;;2.70;90.40;100050.31;6311702;20;2841036;-42
2022/01/17 03:26:20;;;;;;;;;34.00;28.50;;;;;2.70;90.38;100062.69;6278459;20;2500393;-43
2022/01/17 03:28:49;;;;;;;;;30.00;29.50;;;;;2.67;90.59;100063.63;6281303;20;2847306;-43
2022/01/17 03:31:18;;;;;;;;;47.33;33.67;;;;;2.54;91.52;100051.56;6278485;20;2882616;-42
2022/01/17 03:33:47;;;;;;;;;41.00;30.00;;;;;2.47;91.68;100050.84;6311790;20;2862768;-41
2022/01/17 03:36:16;;;;;;;;;33.50;28.00;;;;;2.45;91.67;100046.47;6279850;20;2857635;-41
2022/01/17 03:38:46;;;;;;;;;43.00;33.00;;;;;2.47;91.65;100040.22;6280051;20;2861709;-43
2022/01/17 03:41:15;;;;;;;;;42.50;34.50;;;;;2.44;90.99;100039.44;6281829;20;2862797;-41
2022/01/17 03:43:44;;;;;;;;;39.67;26.67;;;;;2.44;91.78;100047.38;6279650;20;2872115;-42
2022/01/17 03:46:13;;;;;;;;;41.00;29.50;;;;;2.41;91.35;100046.53;6311886;20;2862805;-42
2022/01/17 03:48:42;;;;;;;;;37.00;26.50;;;;;2.42;91.03;100058.91;6281711;20;2873243;-42
2022/01/17 03:51:10;;;;;;;;;43.50;40.00;;;;;2.46;91.87;100049.09;6277019;20;2500848;-42
2022/01/17 03:53:38;;;;;;;;;34.00;26.50;;;;;2.69;91.44;100051.22;6278615;20;2839892;-44
2022/01/17 03:56:07;;;;;;;;;37.00;30.00;;;;;2.51;91.08;100051.66;6279865;20;2862986;-43
2022/01/17 03:58:36;;;;;;;;;35.00;24.50;;;;;2.75;90.84;100043.13;6281649;20;2871107;-42
2022/01/17 04:01:06;;;;;;;;;39.00;29.50;;;;;2.69;90.52;100034.47;6281134;20;2858584;-44
2022/01/17 04:03:35;;;;;;;;;36.00;27.00;;;;;2.61;90.60;100032.84;6276852;20;2500315;-42
2022/01/17 04:06:04;;;;;;;;;37.50;32.50;;;;;2.68;91.31;100038.84;6280424;20;2855578;-42
2022/01/17 04:08:34;;;;;;;;;36.00;31.00;;;;;2.47;90.69;100044.66;6278400;20;2500677;-41
2022/01/17 04:11:02;;;;;;;;;12.50;6.00;;;;;2.52;90.87;100053.38;6277520;20;2771108;-42
2022/01/17 04:13:32;;;;;;;;;36.50;31.50;;;;;2.50;91.07;100050.78;6279100;20;2864845;-43
2022/01/17 04:16:01;;;;;;;;;34.00;30.00;;;;;2.24;91.74;100043.41;6278909;20;2801372;-42
2022/01/17 04:18:30;;;;;;;;;39.50;31.50;;;;;2.38;90.92;100038.66;6277523;20;2885684;-43
2022/01/17 04:21:02;;;;;;;;;41.00;29.00;;;;;2.31;90.72;100052.09;6278227;20;2870068;-42
2022/01/17 04:23:31;;;;;;;;;43.50;34.00;;;;;2.27;91.20;100048.66;6280304;20;2855490;-42
2022/01/17 04:25:59;;;;;;;;;34.00;26.00;;;;;2.41;90.48;100061.59;6275757;20;2500296;-41
2022/01/17 04:28:28;;;;;;;;;36.50;30.00;;;;;2.38;91.21;100066.94;6279814;20;2862746;-41
2022/01/17 04:30:57;;;;;;;;;34.00;27.50;;;;;2.35;90.88;100059.94;6280199;20;2856535;-43
2022/01/17 04:33:24;;;;;;;;;28.00;25.00;;;;;2.44;90.05;100039.44;6278540;20;2500485;-42
2022/01/17 04:35:53;;;;;;;;;40.67;31.33;;;;;2.40;90.11;100036.88;6279742;20;2876285;-43
2022/01/17 04:38:22;;;;;;;;;37.00;29.50;;;;;2.48;90.79;100035.81;6317037;20;2854596;-42
2022/01/17 04:41:01;;;;;;;;;12.67;4.33;;;;;2.40;89.60;100028.91;6279845;20;3486127;-42
2022/01/17 04:43:57;;;;;;;;;45.00;33.67;;;;;2.44;91.75;100023.53;6283160;20;2874419;-42
2022/01/17 04:46:22;;;;;;;;;41.33;36.67;;;;;2.55;89.88;100026.81;6312774;20;2866077;-42
2022/01/17 04:48:51;;;;;;;;;35.00;30.50;;;;;2.44;89.96;100020.88;6313771;20;2855498;-41
2022/01/17 04:51:19;;;;;;;;;38.50;34.50;;;;;2.37;89.86;100028.09;6284302;20;2844246;-42
2022/01/17 04:54:08;;;;;;;;;35.00;30.50;;;;;2.25;89.73;100033.69;6279894;20;2853367;-43
2022/01/17 04:56:37;;;;;;;;;44.67;34.67;;;;;2.40;90.66;100042.16;6285080;20;2862812;-46
2022/01/17 04:59:06;;;;;;;;;34.00;28.00;;;;;2.34;89.55;100042.31;6312941;20;2858700;-42
2022/01/17 05:01:35;;;;;;;;;38.00;31.50;;;;;2.37;89.44;100044.00;6282004;20;2847553;-42
2022/01/17 05:04:03;;;;;;;;;30.50;30.50;;;;;2.12;89.79;100047.19;6285697;20;2855606;-44
2022/01/17 05:06:32;;;;;;;;;39.00;34.00;;;;;2.14;90.47;100041.88;6283507;20;2858595;-45
2022/01/17 05:09:04;;;;;;;;;41.50;32.50;;;;;2.23;89.82;100056.69;6283983;20;2865999;-42
2022/01/17 05:11:34;;;;;;;;;42.00;35.00;;;;;2.29;89.98;100062.75;6283714;20;2860761;-43
2022/01/17 05:14:03;;;;;;;;;54.50;43.50;;;;;2.22;89.72;100047.88;6281258;20;2833585;-42
2022/01/17 05:16:37;;;;;;;;;44.00;38.33;;;;;2.22;90.08;100061.13;6283428;20;2867049;-45
2022/01/17 05:21:51;;;;;;;;;34.00;30.00;;;;;2.22;89.92;100050.53;6282820;20;2848391;-46
2022/01/17 05:24:20;;;;;;;;;43.50;30.00;;;;;2.19;90.04;100047.94;6278834;20;2865978;-43
2022/01/17 05:26:49;;;;;;;;;36.50;31.00;;;;;2.28;89.44;100042.44;6282879;20;2837785;-44
2022/01/17 05:29:18;;;;;;;;;40.00;35.00;;;;;2.31;89.34;100034.41;6283727;20;2713799;-44
2022/01/17 05:31:47;;;;;;;;;42.00;32.50;;;;;2.45;89.17;100031.47;6314885;20;2852318;-43
2022/01/17 05:34:15;;;;;;;;;33.00;28.50;;;;;2.45;89.37;100035.88;6276321;20;2500348;-44
2022/01/17 05:36:44;;;;;;;;;38.33;30.00;;;;;2.37;89.02;100031.66;6285194;20;2866937;-44
2022/01/17 05:39:11;;;;;;;;;33.00;30.50;;;;;2.45;89.26;100033.22;6313347;20;2498287;-46
2022/01/17 05:41:40;;;;;;;;;32.00;25.50;;;;;2.53;88.92;100039.25;6283690;20;2853534;-44
2022/01/17 05:44:09;;;;;;;;;38.00;34.50;;;;;2.45;89.08;100030.56;6283120;20;2841078;-45
2022/01/17 05:46:39;;;;;;;;;55.67;42.67;;;;;2.78;89.16;100021.84;6284129;20;2866904;-46
2022/01/17 05:49:08;;;;;;;;;31.50;26.00;;;;;2.65;88.46;100020.38;6313623;20;2844124;-49
2022/01/17 05:51:36;;;;;;;;;35.00;34.00;;;;;2.68;87.55;100015.00;6281742;20;2500346;-44
2022/01/17 05:54:05;;;;;;;;;42.67;35.00;;;;;2.56;88.04;100015.31;6279399;20;2866951;-44
2022/01/17 05:56:34;;;;;;;;;35.00;31.00;;;;;2.49;88.03;100016.34;6314372;20;2853798;-42
2022/01/17 05:59:03;;;;;;;;;34.00;28.50;;;;;2.35;88.40;100012.25;6282417;20;2845052;-42
2022/01/17 06:01:31;;;;;;;;;43.50;32.50;;;;;2.35;88.91;100008.72;6285218;20;2865914;-42
2022/01/17 06:04:01;;;;;;;;;53.33;38.33;;;;;2.40;89.55;100023.63;6283174;20;3625342;-41
2022/01/17 06:06:30;;;;;;;;;35.00;32.00;;;;;2.29;89.29;100009.75;6315769;20;2860671;-42
2022/01/17 06:08:58;;;;;;;;;32.00;28.50;;;;;2.37;89.28;100012.19;6281739;20;2500289;-42
2022/01/17 06:11:26;;;;;;;;;38.00;29.00;;;;;2.34;89.63;100017.56;6286079;20;2500273;-42
2022/01/17 06:13:54;;;;;;;;;30.00;26.00;;;;;2.47;89.76;100018.16;6280687;20;3578340;-45
2022/01/17 06:16:23;;;;;;;;;32.00;27.00;;;;;2.48;88.99;100009.31;6284152;20;2730441;-43
2022/01/17 06:18:52;;;;;;;;;30.50;30.00;;;;;2.49;88.79;100024.31;6312606;20;2851324;-41
2022/01/17 06:21:20;;;;;;;;;30.00;27.50;;;;;2.93;90.48;100023.25;6280973;20;2498217;-43
2022/01/17 06:23:49;;;;;;;;;48.33;30.00;;;;;2.69;88.51;100019.41;6281870;20;3640843;-43
2022/01/17 06:26:19;;;;;;;;;39.00;35.00;;;;;2.97;88.10;100018.72;6314535;20;2852477;-42
2022/01/17 06:28:48;;;;;;;;;38.50;30.00;;;;;2.95;87.30;100015.22;6283491;20;2856514;-44
2022/01/17 06:31:17;;;;;;;;;34.50;30.00;;;;;2.96;86.33;100009.03;6283683;20;2848296;-42
2022/01/17 06:33:45;;;;;;;;;36.00;28.50;;;;;3.10;87.40;100008.69;6280048;20;2500254;-44
2022/01/17 06:36:14;;;;;;;;;35.00;27.00;;;;;3.03;86.17;99997.38;6283781;20;2854452;-44
2022/01/17 06:38:43;;;;;;;;;37.50;32.00;;;;;3.11;85.07;99990.06;6283415;20;2850404;-43
2022/01/17 06:41:11;;;;;;;;;32.50;29.00;;;;;3.14;84.49;99979.38;6282180;20;2854472;-44
2022/01/17 06:43:40;;;;;;;;;41.00;40.00;;;;;3.00;85.31;99986.81;6281409;20;2858062;-42
2022/01/17 06:46:08;;;;;;;;;31.50;28.50;;;;;3.05;85.28;99974.31;6278132;20;2498170;-43
2022/01/17 06:48:37;;;;;;;;;30.50;24.00;;;;;3.16;85.05;99966.06;6282859;20;2858598;-42
2022/01/17 06:51:06;;;;;;;;;35.00;30.00;;;;;3.04;85.29;99964.63;6282372;20;2855467;-42
2022/01/17 06:53:35;;;;;;;;;35.50;31.50;;;;;3.08;84.76;99969.81;6276737;20;2861746;-42
2022/01/17 06:56:05;;;;;;;;;40.00;31.00;;;;;3.10;85.34;99979.50;6283161;20;2875275;-42
2022/01/17 06:58:36;;;;;;;;;48.00;35.00;;;;;3.00;85.13;99976.19;6313280;20;2871224;-43
2022/01/17 07:01:05;;;;;;;;;43.00;32.50;;;;;3.12;84.79;99975.88;6312082;20;2860657;-43
2022/01/17 07:03:33;;;;;;;;;27.00;24.50;;;;;3.00;85.19;99976.19;6278887;20;2500256;-43
2022/01/17 07:06:01;;;;;;;;;39.50;34.50;;;;;3.00;85.46;99960.28;6280844;20;2500318;-42
2022/01/17 07:08:30;;;;;;;;;32.50;27.00;;;;;3.06;85.14;99962.81;6280819;20;2852352;-43
2022/01/17 07:10:59;;;;;;;;;32.00;27.50;;;;;2.96;85.26;99937.44;6284846;20;2850329;-42
2022/01/17 07:13:26;;;;;;;;;41.00;34.00;;;;;3.14;85.69;99936.94;6279589;20;2500320;-44
2022/01/17 07:15:56;;;;;;;;;43.67;32.67;;;;;3.22;84.29;99915.50;6282877;20;2863816;-44
2022/01/17 07:18:26;;;;;;;;;36.50;28.50;;;;;3.63;84.70;99916.94;6313921;20;2859647;-42
2022/01/17 07:20:55;;;;;;;;;34.00;27.00;;;;;3.34;83.95;99917.78;6279921;20;2850253;-44
2022/01/17 07:23:23;;;;;;;;;36.00;31.50;;;;;3.39;83.33;99920.31;6277625;20;2500294;-42
2022/01/17 07:25:52;;;;;;;;;27.50;26.00;;;;;3.64;83.65;99920.50;6280978;20;2858613;-43
2022/01/17 07:28:19;;;;;;;;;32.50;32.50;;;;;3.49;82.62;99932.41;6281471;20;2500261;-43
2022/01/17 07:30:47;;;;;;;;;27.00;24.50;;;;;3.61;81.93;99963.94;6278285;20;2830477;-41
2022/01/17 07:33:17;;;;;;;;;31.50;28.50;;;;;3.85;80.78;99974.75;6278725;20;2500479;-43
2022/01/17 07:35:45;;;;;;;;;32.67;23.33;;;;;3.92;80.19;99989.56;6279929;20;3585664;-43
2022/01/17 07:38:16;;;;;;;;;25.00;18.33;;;;;4.00;79.87;100007.94;6313549;20;3565917;-42
2022/01/17 07:40:44;;;;;;;;;34.00;25.50;;;;;4.22;79.27;100034.78;6280454;20;2853404;-42
2022/01/17 07:43:13;;;;;;;;;27.50;22.00;;;;;4.30;78.96;100064.66;6281744;20;2833668;-43
2022/01/17 07:45:55;;;;;;;;;30.00;24.00;;;;;4.34;78.65;100071.59;6282013;20;2855540;-42
2022/01/17 07:48:45;;;;;;;;;31.00;26.00;;;;;4.57;78.01;100054.94;6285324;20;2496250;-42
2022/01/17 07:51:11;;;;;;;;;22.00;19.50;;;;;4.47;77.67;100040.19;6281668;20;2831521;-41
2022/01/17 07:53:39;;;;;;;;;27.00;22.00;;;;;4.42;77.98;100016.41;6274232;20;2500258;-42
2022/01/17 07:56:08;;;;;;;;;31.00;26.00;;;;;4.32;78.39;100007.88;6280222;20;2854531;-44
2022/01/17 07:58:37;;;;;;;;;28.50;24.00;;;;;4.45;78.54;100005.69;6276970;20;2852359;-45
2022/01/17 08:01:05;;;;;;;;;25.33;21.33;;;;;4.40;78.49;99999.66;6282070;20;3558258;-43
2022/01/17 08:03:34;;;;;;;;;24.50;19.50;;;;;4.40;78.25;100012.94;6312476;20;2826324;-42
2022/01/17 08:06:02;;;;;;;;;25.50;21.00;;;;;4.65;80.42;100007.72;6278534;20;2500299;-41
2022/01/17 08:08:30;;;;;;;;;23.00;18.00;;;;;4.36;79.18;99990.88;6281909;20;2828371;-42
2022/01/17 08:10:59;;;;;;;;;25.67;20.67;;;;;4.52;78.89;99977.13;6282561;20;3567961;-41
2022/01/17 08:13:27;;;;;;;;;25.50;20.50;;;;;4.31;78.61;99954.75;6283824;20;2500243;-42
2022/01/17 08:15:56;;;;;;;;;38.50;29.00;;;;;4.54;78.10;99962.84;6286949;20;2858599;-43
2022/01/17 08:18:25;;;;;;;;;19.33;19.33;;;;;4.40;77.99;99943.84;6285438;20;3557688;-41
2022/01/17 08:20:54;;;;;;;;;42.00;27.33;;;;;4.41;77.89;99945.56;6282376;20;2877449;-44
2022/01/17 08:23:22;;;;;;;;;21.00;21.00;;;;;4.41;78.14;99940.25;6314246;20;2498639;-46
2022/01/17 08:25:52;;;;;;;;;27.00;25.00;;;;;4.42;78.12;99931.34;6281623;20;2858606;-45
2022/01/17 08:28:23;;;;;;;;;22.67;20.33;;;;;4.59;78.16;99929.00;6282906;20;3561714;-43
2022/01/17 08:30:51;;;;;;;;;25.00;21.33;;;;;4.59;77.46;99933.47;6314976;20;3575329;-41
2022/01/17 08:33:39;;;;;;;;;28.50;21.00;;;;;4.52;77.61;99922.13;6287486;20;2835748;-42
2022/01/17 08:36:08;;;;;;;;;30.00;20.67;;;;;4.64;77.68;99922.69;6284874;20;3576329;-44
2022/01/17 08:38:47;;;;;;;;;22.00;15.00;;;;;4.70;76.93;99927.78;6285990;20;2818048;-43
2022/01/17 08:41:18;;;;;;;;;18.00;17.00;;;;;4.69;77.27;99957.97;6286319;20;2820117;-41
2022/01/17 08:43:47;;;;;;;;;25.00;21.50;;;;;5.08;79.23;99966.34;6282982;20;2500277;-42
2022/01/17 08:46:16;;;;;;;;;30.67;25.67;;;;;4.83;77.11;99985.81;6284258;20;3579457;-42
2022/01/17 08:48:45;;;;;;;;;33.50;28.00;;;;;4.87;77.10;99996.38;6284283;20;2850239;-41
2022/01/17 08:51:13;;;;;;;;;18.00;16.00;;;;;4.95;77.35;99976.59;6287217;20;2820282;-43
2022/01/17 08:53:42;;;;;;;;;28.50;23.50;;;;;5.19;77.66;99961.56;6284445;20;2841977;-42
2022/01/17 08:56:09;;;;;;;;;26.00;16.50;;;;;5.09;76.76;99964.59;6285697;20;2840863;-42
2022/01/17 08:58:39;;;;;;;;;24.67;22.00;;;;;5.01;76.28;99947.09;6284751;20;3566910;-42
2022/01/17 09:01:08;;;;;;;;;19.00;14.67;;;;;5.06;76.03;99928.31;6287767;20;2802524;-42
2022/01/17 09:03:37;;;;;;;;;16.33;15.33;;;;;5.02;76.08;99954.13;6315855;20;3564887;-42
2022/01/17 09:06:05;;;;;;;;;22.50;21.00;;;;;4.98;75.92;99938.34;6288490;20;2826699;-43
2022/01/17 09:08:33;;;;;;;;;21.67;17.67;;;;;4.89;76.10;99925.34;6285493;20;3549385;-42
2022/01/17 09:11:02;;;;;;;;;21.50;20.00;;;;;4.85;76.76;99900.66;6314530;20;2823290;-43
2022/01/17 09:13:31;;;;;;;;;27.00;22.00;;;;;4.96;76.65;99909.13;6283294;20;3564932;-42
2022/01/17 09:15:59;;;;;;;;;27.00;23.00;;;;;4.78;76.53;99907.09;6280050;20;2500258;-42
2022/01/17 09:18:28;;;;;;;;;27.00;20.00;;;;;4.93;76.83;99906.59;6282457;20;2496223;-42
2022/01/17 09:20:56;;;;;;;;;22.00;14.50;;;;;4.96;76.95;99895.81;6285022;20;2813847;-41
2022/01/17 09:23:25;;;;;;;;;26.00;19.33;;;;;4.88;77.23;99897.88;6281229;20;3556610;-42
2022/01/17 09:25:56;;;;;;;;;16.71;9.71;;;;;4.89;76.87;99878.34;6357272;20;1802364;-41
2022/01/17 09:28:25;;;;;;;;;11.00;11.00;;;;;5.03;77.58;99848.59;6316310;20;2810814;-44
2022/01/17 09:30:53;;;;;;;;;25.50;19.00;;;;;5.18;77.70;99857.78;6316535;20;2824335;-43
2022/01/17 09:33:21;;;;;;;;;23.00;19.00;;;;;4.98;77.49;99854.06;6283273;20;2500368;-46
2022/01/17 09:35:50;;;;;;;;;21.67;18.00;;;;;5.20;77.44;99829.34;6282689;20;3555440;-45
2022/01/17 09:38:18;;;;;;;;;30.00;23.00;;;;;5.32;77.73;99825.31;6315356;20;2840927;-45
2022/01/17 09:40:47;;;;;;;;;23.50;18.00;;;;;5.32;76.68;99842.19;6286299;20;2831503;-46
2022/01/17 09:43:36;;;;;;;;;23.50;18.00;;;;;5.25;76.27;99819.38;6284749;20;2833639;-45
2022/01/17 09:46:07;;;;;;;;;22.67;14.33;;;;;5.42;76.21;99802.75;6284165;20;3571165;-46
2022/01/17 09:48:38;;;;;;;;;17.00;15.33;;;;;5.25;76.42;99787.44;6314274;20;3549238;-47
2022/01/17 09:54:06;;;;;;;;;27.50;21.00;;;;;5.18;75.97;99752.19;6276592;20;2500284;-48
2022/01/17 09:56:38;;;;;;;;;35.50;26.50;;;;;5.25;76.21;99742.19;6281235;20;2854470;-46
2022/01/17 09:59:07;;;;;;;;;32.00;27.50;;;;;5.21;76.47;99729.91;6281913;20;2850343;-48
2022/01/17 10:01:38;;;;;;;;;29.33;21.00;;;;;5.27;76.16;99754.50;6283328;20;3566902;-50
2022/01/17 10:04:07;;;;;;;;;25.00;17.50;;;;;5.29;75.89;99751.78;6281475;20;2828396;-47
2022/01/17 10:06:36;;;;;;;;;20.50;19.00;;;;;5.34;75.66;99755.13;6285585;20;2828414;-48
2022/01/17 10:09:24;;;;;;;;;21.67;19.00;;;;;5.40;75.70;99762.91;6285280;20;3564830;-48
2022/01/17 10:12:14;;;;;;;;;19.33;16.00;;;;;5.46;74.81;99759.97;6283147;20;3554519;-46
2022/01/17 10:15:02;;;;;;;;;19.00;17.67;;;;;5.67;75.57;99770.72;6312272;20;3553403;-46
2022/01/17 10:17:56;;;;;;;;;28.00;18.67;;;;;5.91;75.06;99743.06;6277448;20;3583545;-48
2022/01/17 10:20:24;;;;;;;;;26.33;15.00;;;;;5.81;73.56;99739.03;6291807;20;1815930;-46
2022/01/17 10:23:27;;;;;;;;;51.00;23.00;;;;;5.94;73.43;99750.09;6279620;20;2848187;-49
2022/01/17 10:26:08;;;;;;;;;22.33;20.67;;;;;5.94;73.98;99748.28;6286357;20;3567951;-47
2022/01/17 10:37:13;;;;;;;;;24.00;22.33;;;;;5.75;73.62;99712.66;6281697;20;3577289;-44
2022/01/17 10:40:01;;;;;;;;;19.00;16.67;;;;;5.80;73.78;99692.03;6281881;20;3571110;-49
2022/01/17 10:42:42;;;;;;;;;18.67;15.67;;;;;5.78;73.71;99699.22;6281175;20;3558543;-45
2022/01/17 10:45:28;;;;;;;;;17.00;14.00;;;;;6.04;73.35;99694.63;6313647;20;2797154;-46
2022/01/17 10:48:00;;;;;;;;;23.00;18.00;;;;;6.13;72.96;99686.22;6284369;20;3549171;-46
2022/01/17 10:50:43;;;;;;;;;21.67;17.67;;;;;5.98;72.96;99677.09;6311177;20;3553526;-49
2022/01/17 10:53:18;;;;;;;;;20.67;18.67;;;;;5.89;73.61;99690.75;6280186;20;3540877;-48
2022/01/17 10:55:56;;;;;;;;;18.33;15.00;;;;;5.83;74.13;99697.22;6312251;20;3546067;-48
2022/01/17 10:58:31;;;;;;;;;24.00;18.50;;;;;5.70;74.02;99672.88;6281743;20;2842030;-49
2022/01/17 11:01:13;;;;;;;;;17.20;15.20;;;;;5.85;75.03;99674.06;6308260;20;2822143;-49
2022/01/17 11:03:44;;;;;;;;;29.00;24.00;;;;;5.85;75.23;99658.06;6277042;20;2498181;-47
2022/01/17 11:06:20;;;;;;;;;24.00;21.00;;;;;5.79;74.71;99662.78;6280934;20;2500483;-46
2022/01/17 11:08:51;;;;;;;;;19.33;17.33;;;;;5.98;76.18;99676.19;6283477;20;3566910;-47
2022/01/17 11:11:23;;;;;;;;;27.00;22.50;;;;;5.65;74.98;99658.03;6278281;20;2500256;-46
2022/01/17 11:13:54;;;;;;;;;22.50;21.50;;;;;5.57;75.45;99655.69;6279677;20;2500285;-45
2022/01/17 11:16:24;;;;;;;;;28.00;21.50;;;;;5.56;75.88;99653.09;6280318;20;2840922;-47
2022/01/17 11:19:20;;;;;;;;;20.00;16.00;;;;;5.62;76.97;99667.00;6284901;20;2818346;-46
2022/01/17 11:21:40;;;;;;;;;27.00;18.50;;;;;5.44;76.29;99662.44;6283948;20;2839912;-46
2022/01/17 11:24:08;;;;;;;;;28.00;25.00;;;;;5.30;76.23;99657.69;6275955;20;2500257;-45
2022/01/17 11:26:37;;;;;;;;;23.50;22.50;;;;;5.28;76.85;99656.88;6279048;20;2845162;-48
2022/01/17 11:29:08;;;;;;;;;33.00;25.00;;;;;5.36;76.04;99652.13;6279076;20;2856612;-46
2022/01/17 11:31:37;;;;;;;;;23.00;19.00;;;;;5.23;76.58;99650.88;6277392;20;2500290;-47
2022/01/17 11:34:09;;;;;;;;;27.00;21.50;;;;;5.18;76.89;99647.53;6278123;20;2500282;-48
2022/01/17 11:36:38;;;;;;;;;22.67;22.00;;;;;5.21;76.48;99644.75;6280026;20;3579392;-44
2022/01/17 11:39:08;;;;;;;;;28.50;25.50;;;;;5.29;76.84;99639.97;6277998;20;2850365;-49
2022/01/17 11:41:36;;;;;;;;;30.00;22.00;;;;;5.20;77.07;99648.34;6277530;20;2500368;-49
2022/01/17 11:44:09;;;;;;;;;25.00;23.00;;;;;5.28;76.97;99640.91;6277827;20;2491950;-47
2022/01/17 11:46:54;;;;;;;;;23.50;21.00;;;;;5.32;77.44;99647.84;6292189;20;2826811;-45